< < Back
Terminal Aerodrome Forecast


Current Version              Previous Versions:   1  2  3  4  5  6  7  8  9  

Terminal Aerodrome Forecast

978
FTUS42 KFFC 272326
TAFFTY
TAF
KFTY 272326Z 2800/2824 35007KT P6SM FEW050
     FM280800 36005KT P6SM SKC
     FM282000 13005KT P6SM SKC=



Latest METAR

265
SAUS70 KWBC 281600
MTRFTY
METAR KFTY 281553Z 01007KT 10SM CLR 05/M05 A3029 RMK AO2 SLP261
T00501050


USA.gov is the U.S. government's official web portal to all federal, state and local government web resources and services.